Sandlake, Wisconsin
Current Conditions -  °F | °C
As of 1:35 PM on Wednesday 17 Dec 2014 (Local Time) from KOEO Reporting Station
Light Snow Light Snow  
Wind Chill: 11°   Ceiling: 2000
Heat Index: 18°   Visibility: 10mi
Dew Point: 11°   Wind: 5mph
Humidity: 75%   Direction: 300°WNW
Pressure: 30.32"   Gusts: NA
Location:  45.3599°N, 92.5447°W
Report Text: KOEO 171935Z AUTO 30004KT 10SM -SN OVC020 M08/M12 A3032 RMK AO2 T10791116
Loading
Personal Weather Stations






























Interactive Weather Map New forecast layout! Learn more

10-Day Weather Forecast

Advertisements
Track Severe Weather on mobile